sensor_id;sensor_type;location;lat;lon;timestamp;temperature;humidity
66740;DHT22;53653;52.188;8.602;2022-12-18T00:02:15;-6.98;92.38
66740;DHT22;53653;52.188;8.602;2022-12-18T00:04:40;-7.01;92.28
66740;DHT22;53653;52.188;8.602;2022-12-18T00:07:06;-7.04;91.93
66740;DHT22;53653;52.188;8.602;2022-12-18T00:09:32;-7.08;91.73
66740;DHT22;53653;52.188;8.602;2022-12-18T00:11:57;-7.04;92.26
66740;DHT22;53653;52.188;8.602;2022-12-18T00:14:23;-7.04;92.05
66740;DHT22;53653;52.188;8.602;2022-12-18T00:16:48;-7.04;91.45
66740;DHT22;53653;52.188;8.602;2022-12-18T00:19:14;-7.06;91.81
66740;DHT22;53653;52.188;8.602;2022-12-18T00:21:41;-7.26;90.91
66740;DHT22;53653;52.188;8.602;2022-12-18T00:24:08;-7.55;90.26
66740;DHT22;53653;52.188;8.602;2022-12-18T00:26:36;-7.77;90.32
66740;DHT22;53653;52.188;8.602;2022-12-18T00:29:08;-7.92;91.04
66740;DHT22;53653;52.188;8.602;2022-12-18T00:31:35;-7.95;91.15
66740;DHT22;53653;52.188;8.602;2022-12-18T00:34:01;-7.98;91.23
66740;DHT22;53653;52.188;8.602;2022-12-18T00:36:30;-8.01;91.26
66740;DHT22;53653;52.188;8.602;2022-12-18T00:38:58;-8.11;91.31
66740;DHT22;53653;52.188;8.602;2022-12-18T00:41:24;-8.11;91.40
66740;DHT22;53653;52.188;8.602;2022-12-18T00:44:10;-8.08;92.00
66740;DHT22;53653;52.188;8.602;2022-12-18T00:46:36;-8.01;92.21
66740;DHT22;53653;52.188;8.602;2022-12-18T00:49:02;-7.98;91.99
66740;DHT22;53653;52.188;8.602;2022-12-18T00:51:28;-7.98;91.70
66740;DHT22;53653;52.188;8.602;2022-12-18T00:53:53;-7.94;91.57
66740;DHT22;53653;52.188;8.602;2022-12-18T00:56:22;-7.97;91.29
66740;DHT22;53653;52.188;8.602;2022-12-18T00:58:48;-7.97;90.88
66740;DHT22;53653;52.188;8.602;2022-12-18T01:01:14;-8.01;90.73
66740;DHT22;53653;52.188;8.602;2022-12-18T01:03:40;-8.03;90.69
66740;DHT22;53653;52.188;8.602;2022-12-18T01:06:10;-8.08;90.95
66740;DHT22;53653;52.188;8.602;2022-12-18T01:08:37;-8.09;91.39
66740;DHT22;53653;52.188;8.602;2022-12-18T01:11:11;-8.12;91.32
66740;DHT22;53653;52.188;8.602;2022-12-18T01:13:38;-8.16;91.62
66740;DHT22;53653;52.188;8.602;2022-12-18T01:16:03;-8.23;91.67
66740;DHT22;53653;52.188;8.602;2022-12-18T01:18:29;-8.30;91.95
66740;DHT22;53653;52.188;8.602;2022-12-18T01:20:57;-8.34;91.83
66740;DHT22;53653;52.188;8.602;2022-12-18T01:23:22;-8.42;91.82
66740;DHT22;53653;52.188;8.602;2022-12-18T01:25:48;-8.44;92.25
66740;DHT22;53653;52.188;8.602;2022-12-18T01:28:13;-8.40;92.51
66740;DHT22;53653;52.188;8.602;2022-12-18T01:30:39;-8.39;92.48
66740;DHT22;53653;52.188;8.602;2022-12-18T01:33:05;-8.33;92.53
66740;DHT22;53653;52.188;8.602;2022-12-18T01:35:31;-8.30;92.27
66740;DHT22;53653;52.188;8.602;2022-12-18T01:37:56;-8.26;92.09
66740;DHT22;53653;52.188;8.602;2022-12-18T01:40:23;-8.26;91.90
66740;DHT22;53653;52.188;8.602;2022-12-18T01:42:53;-8.26;91.71
66740;DHT22;53653;52.188;8.602;2022-12-18T01:45:23;-8.26;91.23
66740;DHT22;53653;52.188;8.602;2022-12-18T01:47:58;-8.29;91.27
66740;DHT22;53653;52.188;8.602;2022-12-18T01:50:34;-8.34;91.33
66740;DHT22;53653;52.188;8.602;2022-12-18T01:53:06;-8.43;91.03
66740;DHT22;53653;52.188;8.602;2022-12-18T01:55:37;-8.44;91.41
66740;DHT22;53653;52.188;8.602;2022-12-18T01:58:03;-8.47;91.78
66740;DHT22;53653;52.188;8.602;2022-12-18T02:00:29;-8.50;91.75
66740;DHT22;53653;52.188;8.602;2022-12-18T02:02:55;-8.50;91.96
66740;DHT22;53653;52.188;8.602;2022-12-18T02:05:47;-8.50;93.13
66740;DHT22;53653;52.188;8.602;2022-12-18T02:14:04;-8.58;91.56
66740;DHT22;53653;52.188;8.602;2022-12-18T02:25:27;-8.61;92.87
66740;DHT22;53653;52.188;8.602;2022-12-18T02:27:56;-8.60;93.02
66740;DHT22;53653;52.188;8.602;2022-12-18T02:30:23;-8.60;92.90
66740;DHT22;53653;52.188;8.602;2022-12-18T02:32:51;-8.60;92.43
66740;DHT22;53653;52.188;8.602;2022-12-18T02:35:22;-8.63;92.10
66740;DHT22;53653;52.188;8.602;2022-12-18T02:37:55;-8.68;91.59
66740;DHT22;53653;52.188;8.602;2022-12-18T02:40:22;-8.77;91.00
66740;DHT22;53653;52.188;8.602;2022-12-18T02:42:49;-8.83;90.91
66740;DHT22;53653;52.188;8.602;2022-12-18T02:45:17;-8.80;93.02
66740;DHT22;53653;52.188;8.602;2022-12-18T02:47:46;-8.77;93.43
66740;DHT22;53653;52.188;8.602;2022-12-18T02:53:18;-8.65;93.73
66740;DHT22;53653;52.188;8.602;2022-12-18T02:56:09;-8.64;92.95
66740;DHT22;53653;52.188;8.602;2022-12-18T02:58:42;-8.67;93.37
66740;DHT22;53653;52.188;8.602;2022-12-18T03:01:45;-8.65;93.85
66740;DHT22;53653;52.188;8.602;2022-12-18T03:04:18;-8.63;93.93
66740;DHT22;53653;52.188;8.602;2022-12-18T03:06:49;-8.61;93.89
66740;DHT22;53653;52.188;8.602;2022-12-18T03:09:21;-8.63;93.62
66740;DHT22;53653;52.188;8.602;2022-12-18T03:11:54;-8.58;93.15
66740;DHT22;53653;52.188;8.602;2022-12-18T03:14:40;-8.63;92.81
66740;DHT22;53653;52.188;8.602;2022-12-18T03:17:14;-8.71;92.41
66740;DHT22;53653;52.188;8.602;2022-12-18T03:19:43;-8.77;91.67
66740;DHT22;53653;52.188;8.602;2022-12-18T03:22:10;-8.83;91.39
66740;DHT22;53653;52.188;8.602;2022-12-18T03:24:44;-8.80;92.31
66740;DHT22;53653;52.188;8.602;2022-12-18T03:27:12;-8.79;92.70
66740;DHT22;53653;52.188;8.602;2022-12-18T03:29:43;-8.74;93.78
66740;DHT22;53653;52.188;8.602;2022-12-18T03:32:35;-8.71;94.12
66740;DHT22;53653;52.188;8.602;2022-12-18T03:35:04;-8.74;94.03
66740;DHT22;53653;52.188;8.602;2022-12-18T03:37:34;-8.73;93.94
66740;DHT22;53653;52.188;8.602;2022-12-18T03:40:00;-8.73;93.82
66740;DHT22;53653;52.188;8.602;2022-12-18T03:42:42;-8.71;93.66
66740;DHT22;53653;52.188;8.602;2022-12-18T03:45:26;-8.76;93.65
66740;DHT22;53653;52.188;8.602;2022-12-18T03:48:06;-8.77;93.88
66740;DHT22;53653;52.188;8.602;2022-12-18T03:50:56;-8.79;93.59
66740;DHT22;53653;52.188;8.602;2022-12-18T03:55:59;-8.77;93.25
66740;DHT22;53653;52.188;8.602;2022-12-18T03:58:33;-8.77;92.85
66740;DHT22;53653;52.188;8.602;2022-12-18T04:01:13;-8.79;92.66
66740;DHT22;53653;52.188;8.602;2022-12-18T04:03:42;-8.84;92.23
66740;DHT22;53653;52.188;8.602;2022-12-18T04:06:09;-8.88;91.86
66740;DHT22;53653;52.188;8.602;2022-12-18T04:08:37;-8.95;92.16
66740;DHT22;53653;52.188;8.602;2022-12-18T04:11:05;-9.08;92.29
66740;DHT22;53653;52.188;8.602;2022-12-18T04:13:35;-8.98;93.96
66740;DHT22;53653;52.188;8.602;2022-12-18T04:16:04;-8.95;93.62
66740;DHT22;53653;52.188;8.602;2022-12-18T04:18:31;-8.92;93.88
66740;DHT22;53653;52.188;8.602;2022-12-18T04:20:58;-8.87;93.93
66740;DHT22;53653;52.188;8.602;2022-12-18T04:23:24;-8.84;93.98
66740;DHT22;53653;52.188;8.602;2022-12-18T04:25:52;-8.84;93.97
66740;DHT22;53653;52.188;8.602;2022-12-18T04:28:31;-8.85;93.92
66740;DHT22;53653;52.188;8.602;2022-12-18T04:30:56;-8.91;93.79
66740;DHT22;53653;52.188;8.602;2022-12-18T04:33:22;-8.95;93.69
66740;DHT22;53653;52.188;8.602;2022-12-18T04:35:47;-8.98;93.70
66740;DHT22;53653;52.188;8.602;2022-12-18T04:38:13;-9.00;93.79
66740;DHT22;53653;52.188;8.602;2022-12-18T04:40:39;-8.97;94.10
66740;DHT22;53653;52.188;8.602;2022-12-18T04:43:11;-8.92;94.19
66740;DHT22;53653;52.188;8.602;2022-12-18T04:45:36;-8.92;94.02
66740;DHT22;53653;52.188;8.602;2022-12-18T04:48:03;-8.92;93.92
66740;DHT22;53653;52.188;8.602;2022-12-18T04:50:29;-8.95;93.75
66740;DHT22;53653;52.188;8.602;2022-12-18T04:52:55;-8.91;93.68
66740;DHT22;53653;52.188;8.602;2022-12-18T04:55:21;-8.92;93.32
66740;DHT22;53653;52.188;8.602;2022-12-18T04:57:52;-8.94;93.24
66740;DHT22;53653;52.188;8.602;2022-12-18T05:00:18;-9.00;92.90
66740;DHT22;53653;52.188;8.602;2022-12-18T05:02:44;-9.09;92.27
66740;DHT22;53653;52.188;8.602;2022-12-18T05:05:10;-9.12;92.36
66740;DHT22;53653;52.188;8.602;2022-12-18T05:07:35;-9.14;92.44
66740;DHT22;53653;52.188;8.602;2022-12-18T05:10:01;-9.12;92.38
66740;DHT22;53653;52.188;8.602;2022-12-18T05:12:26;-9.12;92.22
66740;DHT22;53653;52.188;8.602;2022-12-18T05:14:52;-9.19;91.97
66740;DHT22;53653;52.188;8.602;2022-12-18T05:17:17;-9.22;91.95
66740;DHT22;53653;52.188;8.602;2022-12-18T05:19:43;-9.23;92.10
66740;DHT22;53653;52.188;8.602;2022-12-18T05:22:08;-9.26;91.85
66740;DHT22;53653;52.188;8.602;2022-12-18T05:24:34;-9.25;92.10
66740;DHT22;53653;52.188;8.602;2022-12-18T05:26:59;-9.23;91.91
66740;DHT22;53653;52.188;8.602;2022-12-18T05:29:25;-9.26;91.99
66740;DHT22;53653;52.188;8.602;2022-12-18T05:31:51;-9.18;93.26
66740;DHT22;53653;52.188;8.602;2022-12-18T05:34:16;-9.15;93.21
66740;DHT22;53653;52.188;8.602;2022-12-18T05:36:42;-9.15;93.17
66740;DHT22;53653;52.188;8.602;2022-12-18T05:39:07;-9.08;93.38
66740;DHT22;53653;52.188;8.602;2022-12-18T05:41:33;-9.08;93.54
66740;DHT22;53653;52.188;8.602;2022-12-18T05:43:58;-9.08;93.61
66740;DHT22;53653;52.188;8.602;2022-12-18T05:46:24;-9.08;93.84
66740;DHT22;53653;52.188;8.602;2022-12-18T05:48:50;-9.11;93.57
66740;DHT22;53653;52.188;8.602;2022-12-18T05:51:18;-9.16;93.32
66740;DHT22;53653;52.188;8.602;2022-12-18T05:53:44;-9.19;93.24
66740;DHT22;53653;52.188;8.602;2022-12-18T05:56:13;-9.15;93.68
66740;DHT22;53653;52.188;8.602;2022-12-18T05:58:39;-9.09;94.28
66740;DHT22;53653;52.188;8.602;2022-12-18T06:01:07;-9.07;94.25
66740;DHT22;53653;52.188;8.602;2022-12-18T06:03:33;-9.02;93.98
66740;DHT22;53653;52.188;8.602;2022-12-18T06:05:59;-9.04;93.67
66740;DHT22;53653;52.188;8.602;2022-12-18T06:08:24;-9.07;93.27
66740;DHT22;53653;52.188;8.602;2022-12-18T06:10:51;-9.11;92.72
66740;DHT22;53653;52.188;8.602;2022-12-18T06:13:18;-9.15;92.51
66740;DHT22;53653;52.188;8.602;2022-12-18T06:15:43;-9.16;92.39
66740;DHT22;53653;52.188;8.602;2022-12-18T06:18:09;-9.23;92.00
66740;DHT22;53653;52.188;8.602;2022-12-18T06:20:34;-9.30;91.99
66740;DHT22;53653;52.188;8.602;2022-12-18T06:23:01;-9.44;91.84
66740;DHT22;53653;52.188;8.602;2022-12-18T06:25:27;-9.54;92.79
66740;DHT22;53653;52.188;8.602;2022-12-18T06:27:52;-9.54;92.79
66740;DHT22;53653;52.188;8.602;2022-12-18T06:30:18;-9.53;92.97
66740;DHT22;53653;52.188;8.602;2022-12-18T06:32:43;-9.44;93.56
66740;DHT22;53653;52.188;8.602;2022-12-18T06:35:09;-9.43;93.57
66740;DHT22;53653;52.188;8.602;2022-12-18T06:37:35;-9.38;93.83
66740;DHT22;53653;52.188;8.602;2022-12-18T06:40:00;-9.32;93.71
66740;DHT22;53653;52.188;8.602;2022-12-18T06:42:26;-9.35;93.05
66740;DHT22;53653;52.188;8.602;2022-12-18T06:44:51;-9.40;92.85
66740;DHT22;53653;52.188;8.602;2022-12-18T06:47:18;-9.50;92.84
66740;DHT22;53653;52.188;8.602;2022-12-18T06:49:43;-9.53;93.19
66740;DHT22;53653;52.188;8.602;2022-12-18T06:52:09;-9.42;94.05
66740;DHT22;53653;52.188;8.602;2022-12-18T06:54:34;-9.39;93.86
66740;DHT22;53653;52.188;8.602;2022-12-18T06:56:59;-9.36;93.95
66740;DHT22;53653;52.188;8.602;2022-12-18T06:59:25;-9.36;93.98
66740;DHT22;53653;52.188;8.602;2022-12-18T07:01:50;-9.32;93.84
66740;DHT22;53653;52.188;8.602;2022-12-18T07:04:16;-9.30;93.66
66740;DHT22;53653;52.188;8.602;2022-12-18T07:06:41;-9.29;93.77
66740;DHT22;53653;52.188;8.602;2022-12-18T07:09:07;-9.26;94.00
66740;DHT22;53653;52.188;8.602;2022-12-18T07:11:32;-9.21;94.09
66740;DHT22;53653;52.188;8.602;2022-12-18T07:13:58;-9.19;93.72
66740;DHT22;53653;52.188;8.602;2022-12-18T07:16:24;-9.16;93.71
66740;DHT22;53653;52.188;8.602;2022-12-18T07:18:49;-9.14;93.81
66740;DHT22;53653;52.188;8.602;2022-12-18T07:21:18;-9.18;93.55
66740;DHT22;53653;52.188;8.602;2022-12-18T07:23:44;-9.19;93.61
66740;DHT22;53653;52.188;8.602;2022-12-18T07:26:14;-9.23;93.64
66740;DHT22;53653;52.188;8.602;2022-12-18T07:28:41;-9.23;93.78
66740;DHT22;53653;52.188;8.602;2022-12-18T07:31:16;-9.25;93.80
66740;DHT22;53653;52.188;8.602;2022-12-18T07:33:42;-9.28;93.58
66740;DHT22;53653;52.188;8.602;2022-12-18T07:36:09;-9.29;93.46
66740;DHT22;53653;52.188;8.602;2022-12-18T07:38:35;-9.28;93.48
66740;DHT22;53653;52.188;8.602;2022-12-18T07:41:02;-9.30;93.62
66740;DHT22;53653;52.188;8.602;2022-12-18T07:43:28;-9.28;93.54
66740;DHT22;53653;52.188;8.602;2022-12-18T07:45:53;-9.26;93.35
66740;DHT22;53653;52.188;8.602;2022-12-18T07:48:19;-9.25;93.31
66740;DHT22;53653;52.188;8.602;2022-12-18T07:50:45;-9.22;93.46
66740;DHT22;53653;52.188;8.602;2022-12-18T07:53:10;-9.18;93.31
66740;DHT22;53653;52.188;8.602;2022-12-18T07:55:36;-9.16;93.12
66740;DHT22;53653;52.188;8.602;2022-12-18T07:58:04;-9.12;93.00
66740;DHT22;53653;52.188;8.602;2022-12-18T08:00:30;-9.07;93.13
66740;DHT22;53653;52.188;8.602;2022-12-18T08:02:56;-8.95;92.90
66740;DHT22;53653;52.188;8.602;2022-12-18T08:05:22;-8.87;92.74
66740;DHT22;53653;52.188;8.602;2022-12-18T08:07:48;-8.76;92.79
66740;DHT22;53653;52.188;8.602;2022-12-18T08:10:13;-8.71;92.76
66740;DHT22;53653;52.188;8.602;2022-12-18T08:12:39;-8.60;93.00
66740;DHT22;53653;52.188;8.602;2022-12-18T08:15:05;-8.49;92.97
66740;DHT22;53653;52.188;8.602;2022-12-18T08:17:31;-8.37;92.88
66740;DHT22;53653;52.188;8.602;2022-12-18T08:19:57;-8.29;92.58
66740;DHT22;53653;52.188;8.602;2022-12-18T08:22:23;-8.26;92.51
66740;DHT22;53653;52.188;8.602;2022-12-18T08:24:48;-8.25;92.46
66740;DHT22;53653;52.188;8.602;2022-12-18T08:27:14;-8.25;92.47
66740;DHT22;53653;52.188;8.602;2022-12-18T08:29:40;-8.22;92.30
66740;DHT22;53653;52.188;8.602;2022-12-18T08:32:05;-8.19;92.12
66740;DHT22;53653;52.188;8.602;2022-12-18T08:34:31;-8.22;91.99
66740;DHT22;53653;52.188;8.602;2022-12-18T08:36:56;-8.21;92.12
66740;DHT22;53653;52.188;8.602;2022-12-18T08:39:22;-8.18;92.21
66740;DHT22;53653;52.188;8.602;2022-12-18T08:41:48;-8.16;92.20
66740;DHT22;53653;52.188;8.602;2022-12-18T08:44:33;-8.18;92.14
66740;DHT22;53653;52.188;8.602;2022-12-18T08:47:06;-8.12;92.24
66740;DHT22;53653;52.188;8.602;2022-12-18T08:49:33;-8.06;92.10
66740;DHT22;53653;52.188;8.602;2022-12-18T08:51:59;-7.98;92.31
66740;DHT22;53653;52.188;8.602;2022-12-18T08:54:25;-7.88;91.96
66740;DHT22;53653;52.188;8.602;2022-12-18T08:56:51;-7.82;91.90
66740;DHT22;53653;52.188;8.602;2022-12-18T08:59:18;-7.78;91.87
66740;DHT22;53653;52.188;8.602;2022-12-18T09:01:44;-7.74;91.68
66740;DHT22;53653;52.188;8.602;2022-12-18T09:04:10;-7.67;91.59
66740;DHT22;53653;52.188;8.602;2022-12-18T09:06:36;-7.64;91.32
66740;DHT22;53653;52.188;8.602;2022-12-18T09:09:03;-7.54;91.38
66740;DHT22;53653;52.188;8.602;2022-12-18T09:11:30;-7.50;91.17
66740;DHT22;53653;52.188;8.602;2022-12-18T09:13:57;-7.34;91.08
66740;DHT22;53653;52.188;8.602;2022-12-18T09:16:24;-7.22;90.77
66740;DHT22;53653;52.188;8.602;2022-12-18T09:18:50;-7.02;90.64
66740;DHT22;53653;52.188;8.602;2022-12-18T09:21:19;-6.91;90.51
66740;DHT22;53653;52.188;8.602;2022-12-18T09:23:49;-6.84;90.45
66740;DHT22;53653;52.188;8.602;2022-12-18T09:26:15;-6.78;90.44
66740;DHT22;53653;52.188;8.602;2022-12-18T09:28:41;-6.71;90.35
66740;DHT22;53653;52.188;8.602;2022-12-18T09:31:08;-6.64;90.08
66740;DHT22;53653;52.188;8.602;2022-12-18T09:33:35;-6.58;89.80
66740;DHT22;53653;52.188;8.602;2022-12-18T09:36:05;-6.48;89.75
66740;DHT22;53653;52.188;8.602;2022-12-18T09:38:32;-6.43;89.44
66740;DHT22;53653;52.188;8.602;2022-12-18T09:43:50;-6.16;88.96
66740;DHT22;53653;52.188;8.602;2022-12-18T09:46:26;-5.98;88.85
66740;DHT22;53653;52.188;8.602;2022-12-18T09:48:55;-5.85;88.62
66740;DHT22;53653;52.188;8.602;2022-12-18T09:51:30;-5.73;88.36
66740;DHT22;53653;52.188;8.602;2022-12-18T09:54:03;-5.50;87.92
66740;DHT22;53653;52.188;8.602;2022-12-18T09:56:35;-5.33;87.49
66740;DHT22;53653;52.188;8.602;2022-12-18T09:59:04;-5.22;87.48
66740;DHT22;53653;52.188;8.602;2022-12-18T10:01:32;-5.02;87.36
66740;DHT22;53653;52.188;8.602;2022-12-18T10:03:58;-4.84;87.08
66740;DHT22;53653;52.188;8.602;2022-12-18T10:06:54;-4.61;86.89
66740;DHT22;53653;52.188;8.602;2022-12-18T10:12:43;-4.31;86.49
66740;DHT22;53653;52.188;8.602;2022-12-18T10:15:19;-4.00;85.16
66740;DHT22;53653;52.188;8.602;2022-12-18T10:26:13;-2.82;81.09
66740;DHT22;53653;52.188;8.602;2022-12-18T10:28:39;-2.71;80.68
66740;DHT22;53653;52.188;8.602;2022-12-18T10:31:06;-2.51;79.91
66740;DHT22;53653;52.188;8.602;2022-12-18T10:33:33;-2.52;79.87
66740;DHT22;53653;52.188;8.602;2022-12-18T10:35:59;-2.37;79.57
66740;DHT22;53653;52.188;8.602;2022-12-18T10:38:30;-2.29;78.57
66740;DHT22;53653;52.188;8.602;2022-12-18T10:41:06;-2.13;78.93
66740;DHT22;53653;52.188;8.602;2022-12-18T10:43:38;-2.07;78.66
66740;DHT22;53653;52.188;8.602;2022-12-18T10:51:05;-1.68;76.65
66740;DHT22;53653;52.188;8.602;2022-12-18T10:53:33;-1.45;77.04
66740;DHT22;53653;52.188;8.602;2022-12-18T10:56:04;-1.31;76.06
66740;DHT22;53653;52.188;8.602;2022-12-18T10:58:33;-1.31;74.62
66740;DHT22;53653;52.188;8.602;2022-12-18T11:03:42;-1.25;75.64
66740;DHT22;53653;52.188;8.602;2022-12-18T11:08:44;-1.27;74.54
66740;DHT22;53653;52.188;8.602;2022-12-18T11:11:20;-1.37;75.31
66740;DHT22;53653;52.188;8.602;2022-12-18T11:14:06;-1.37;75.68
66740;DHT22;53653;52.188;8.602;2022-12-18T11:16:45;-1.41;75.69
66740;DHT22;53653;52.188;8.602;2022-12-18T11:19:19;-1.40;75.92
66740;DHT22;53653;52.188;8.602;2022-12-18T11:21:46;-1.44;74.77
66740;DHT22;53653;52.188;8.602;2022-12-18T11:24:20;-1.42;74.64
66740;DHT22;53653;52.188;8.602;2022-12-18T11:26:46;-1.42;74.87
66740;DHT22;53653;52.188;8.602;2022-12-18T11:29:24;-1.47;74.09
66740;DHT22;53653;52.188;8.602;2022-12-18T11:34:44;-1.45;74.05
66740;DHT22;53653;52.188;8.602;2022-12-18T11:37:13;-1.50;74.18
66740;DHT22;53653;52.188;8.602;2022-12-18T11:39:46;-1.47;74.20
66740;DHT22;53653;52.188;8.602;2022-12-18T11:42:20;-1.50;74.40
66740;DHT22;53653;52.188;8.602;2022-12-18T11:44:50;-1.44;73.90
66740;DHT22;53653;52.188;8.602;2022-12-18T11:47:42;-1.42;74.28
66740;DHT22;53653;52.188;8.602;2022-12-18T11:53:12;-1.45;73.51
66740;DHT22;53653;52.188;8.602;2022-12-18T11:56:04;-1.44;73.67
66740;DHT22;53653;52.188;8.602;2022-12-18T11:58:53;-1.44;72.53
66740;DHT22;53653;52.188;8.602;2022-12-18T12:01:29;-1.41;73.02
66740;DHT22;53653;52.188;8.602;2022-12-18T12:09:47;-1.40;73.73
66740;DHT22;53653;52.188;8.602;2022-12-18T12:15:42;-1.37;73.18
66740;DHT22;53653;52.188;8.602;2022-12-18T12:26:23;-1.32;73.55
66740;DHT22;53653;52.188;8.602;2022-12-18T12:31:53;-1.24;72.09
66740;DHT22;53653;52.188;8.602;2022-12-18T12:34:34;-1.23;72.38
66740;DHT22;53653;52.188;8.602;2022-12-18T12:39:46;-1.21;72.97
66740;DHT22;53653;52.188;8.602;2022-12-18T12:42:29;-1.14;72.09
66740;DHT22;53653;52.188;8.602;2022-12-18T12:45:20;-1.13;72.74
66740;DHT22;53653;52.188;8.602;2022-12-18T12:47:48;-1.17;73.33
66740;DHT22;53653;52.188;8.602;2022-12-18T12:50:17;-1.14;72.58
66740;DHT22;53653;52.188;8.602;2022-12-18T12:52:46;-1.13;71.88
66740;DHT22;53653;52.188;8.602;2022-12-18T12:55:17;-1.08;72.47
66740;DHT22;53653;52.188;8.602;2022-12-18T13:04:11;-0.99;70.81
66740;DHT22;53653;52.188;8.602;2022-12-18T13:06:53;-0.97;71.26
66740;DHT22;53653;52.188;8.602;2022-12-18T13:09:21;-0.94;69.43
66740;DHT22;53653;52.188;8.602;2022-12-18T13:11:47;-0.93;70.34
66740;DHT22;53653;52.188;8.602;2022-12-18T13:14:35;-0.92;70.84
66740;DHT22;53653;52.188;8.602;2022-12-18T13:17:27;-0.94;71.34
66740;DHT22;53653;52.188;8.602;2022-12-18T13:20:12;-0.96;70.82
66740;DHT22;53653;52.188;8.602;2022-12-18T13:22:48;-0.93;70.39
66740;DHT22;53653;52.188;8.602;2022-12-18T13:25:36;-0.93;70.34
66740;DHT22;53653;52.188;8.602;2022-12-18T13:48:21;-0.82;69.52
66740;DHT22;53653;52.188;8.602;2022-12-18T13:51:03;-0.83;70.00
66740;DHT22;53653;52.188;8.602;2022-12-18T13:53:50;-0.83;70.07
66740;DHT22;53653;52.188;8.602;2022-12-18T13:56:25;-0.83;70.35
66740;DHT22;53653;52.188;8.602;2022-12-18T14:01:56;-0.84;70.13
66740;DHT22;53653;52.188;8.602;2022-12-18T14:04:31;-0.84;69.99
66740;DHT22;53653;52.188;8.602;2022-12-18T14:07:10;-0.80;69.05
66740;DHT22;53653;52.188;8.602;2022-12-18T14:09:40;-0.79;69.27
66740;DHT22;53653;52.188;8.602;2022-12-18T14:12:15;-0.77;69.45
66740;DHT22;53653;52.188;8.602;2022-12-18T14:15:00;-0.72;68.73
66740;DHT22;53653;52.188;8.602;2022-12-18T14:17:26;-0.70;68.15
66740;DHT22;53653;52.188;8.602;2022-12-18T14:19:51;-0.68;68.29
66740;DHT22;53653;52.188;8.602;2022-12-18T14:22:26;-0.63;67.41
66740;DHT22;53653;52.188;8.602;2022-12-18T14:27:44;-0.65;67.72
66740;DHT22;53653;52.188;8.602;2022-12-18T14:30:29;-0.61;67.30
66740;DHT22;53653;52.188;8.602;2022-12-18T14:41:06;-0.72;68.10
66740;DHT22;53653;52.188;8.602;2022-12-18T14:43:34;-0.68;67.72
66740;DHT22;53653;52.188;8.602;2022-12-18T14:46:00;-0.69;67.74
66740;DHT22;53653;52.188;8.602;2022-12-18T14:48:53;-0.70;67.83
66740;DHT22;53653;52.188;8.602;2022-12-18T14:51:21;-0.68;67.25
66740;DHT22;53653;52.188;8.602;2022-12-18T14:53:49;-0.76;68.47
66740;DHT22;53653;52.188;8.602;2022-12-18T14:58:53;-0.76;68.24
66740;DHT22;53653;52.188;8.602;2022-12-18T15:01:25;-0.80;68.46
66740;DHT22;53653;52.188;8.602;2022-12-18T15:03:52;-0.77;67.97
66740;DHT22;53653;52.188;8.602;2022-12-18T15:06:35;-0.84;68.76
66740;DHT22;53653;52.188;8.602;2022-12-18T15:09:05;-0.80;68.41
66740;DHT22;53653;52.188;8.602;2022-12-18T15:17:02;-0.86;68.88
66740;DHT22;53653;52.188;8.602;2022-12-18T15:19:36;-0.82;68.51
66740;DHT22;53653;52.188;8.602;2022-12-18T15:22:02;-0.92;69.22
66740;DHT22;53653;52.188;8.602;2022-12-18T15:24:31;-0.82;68.54
66740;DHT22;53653;52.188;8.602;2022-12-18T15:26:58;-0.79;68.06
66740;DHT22;53653;52.188;8.602;2022-12-18T15:29:24;-0.83;68.74
66740;DHT22;53653;52.188;8.602;2022-12-18T15:32:05;-0.76;68.25
66740;DHT22;53653;52.188;8.602;2022-12-18T15:34:40;-0.76;68.41
66740;DHT22;53653;52.188;8.602;2022-12-18T15:37:07;-0.79;68.40
66740;DHT22;53653;52.188;8.602;2022-12-18T15:39:33;-0.79;68.61
66740;DHT22;53653;52.188;8.602;2022-12-18T15:42:00;-0.76;68.16
66740;DHT22;53653;52.188;8.602;2022-12-18T15:44:45;-0.77;68.44
66740;DHT22;53653;52.188;8.602;2022-12-18T15:47:12;-0.75;68.13
66740;DHT22;53653;52.188;8.602;2022-12-18T15:49:38;-0.79;68.78
66740;DHT22;53653;52.188;8.602;2022-12-18T15:52:04;-0.79;68.69
66740;DHT22;53653;52.188;8.602;2022-12-18T15:54:30;-0.79;68.59
66740;DHT22;53653;52.188;8.602;2022-12-18T15:57:15;-0.84;69.32
66740;DHT22;53653;52.188;8.602;2022-12-18T15:59:54;-0.86;69.36
66740;DHT22;53653;52.188;8.602;2022-12-18T16:02:22;-0.87;69.56
66740;DHT22;53653;52.188;8.602;2022-12-18T16:04:49;-0.86;69.42
66740;DHT22;53653;52.188;8.602;2022-12-18T16:07:15;-0.83;69.29
66740;DHT22;53653;52.188;8.602;2022-12-18T16:09:41;-0.82;69.31
66740;DHT22;53653;52.188;8.602;2022-12-18T16:12:15;-0.84;69.51
66740;DHT22;53653;52.188;8.602;2022-12-18T16:14:41;-0.79;69.12
66740;DHT22;53653;52.188;8.602;2022-12-18T16:17:10;-0.77;68.84
66740;DHT22;53653;52.188;8.602;2022-12-18T16:19:35;-0.83;69.29
66740;DHT22;53653;52.188;8.602;2022-12-18T16:22:04;-0.79;69.36
66740;DHT22;53653;52.188;8.602;2022-12-18T16:24:32;-0.79;69.30
66740;DHT22;53653;52.188;8.602;2022-12-18T16:26:59;-0.79;69.27
66740;DHT22;53653;52.188;8.602;2022-12-18T16:29:26;-0.73;69.02
66740;DHT22;53653;52.188;8.602;2022-12-18T16:31:59;-0.75;69.32
66740;DHT22;53653;52.188;8.602;2022-12-18T16:34:27;-0.79;69.30
66740;DHT22;53653;52.188;8.602;2022-12-18T16:37:13;-0.79;69.45
66740;DHT22;53653;52.188;8.602;2022-12-18T16:39:40;-0.80;69.46
66740;DHT22;53653;52.188;8.602;2022-12-18T16:44:35;-0.76;69.17
66740;DHT22;53653;52.188;8.602;2022-12-18T16:47:00;-0.77;69.25
66740;DHT22;53653;52.188;8.602;2022-12-18T16:49:27;-0.76;69.24
66740;DHT22;53653;52.188;8.602;2022-12-18T16:51:53;-0.76;69.45
66740;DHT22;53653;52.188;8.602;2022-12-18T16:54:19;-0.75;69.15
66740;DHT22;53653;52.188;8.602;2022-12-18T16:56:45;-0.79;69.50
66740;DHT22;53653;52.188;8.602;2022-12-18T16:59:13;-0.77;69.18
66740;DHT22;53653;52.188;8.602;2022-12-18T17:01:39;-0.79;69.44
66740;DHT22;53653;52.188;8.602;2022-12-18T17:04:06;-0.76;69.14
66740;DHT22;53653;52.188;8.602;2022-12-18T17:06:35;-0.77;69.25
66740;DHT22;53653;52.188;8.602;2022-12-18T17:09:06;-0.70;68.91
66740;DHT22;53653;52.188;8.602;2022-12-18T17:11:33;-0.73;69.07
66740;DHT22;53653;52.188;8.602;2022-12-18T17:14:09;-0.70;68.93
66740;DHT22;53653;52.188;8.602;2022-12-18T17:16:35;-0.68;68.70
66740;DHT22;53653;52.188;8.602;2022-12-18T17:19:01;-0.63;68.53
66740;DHT22;53653;52.188;8.602;2022-12-18T17:21:26;-0.61;68.18
66740;DHT22;53653;52.188;8.602;2022-12-18T17:23:52;-0.58;68.08
66740;DHT22;53653;52.188;8.602;2022-12-18T17:26:18;-0.59;68.13
66740;DHT22;53653;52.188;8.602;2022-12-18T17:28:43;-0.54;67.76
66740;DHT22;53653;52.188;8.602;2022-12-18T17:31:15;-0.48;67.29
66740;DHT22;53653;52.188;8.602;2022-12-18T17:33:42;-0.51;67.34
66740;DHT22;53653;52.188;8.602;2022-12-18T17:36:08;-0.55;67.98
66740;DHT22;53653;52.188;8.602;2022-12-18T17:38:34;-0.54;67.64
66740;DHT22;53653;52.188;8.602;2022-12-18T17:41:04;-0.45;66.81
66740;DHT22;53653;52.188;8.602;2022-12-18T17:43:30;-0.41;66.78
66740;DHT22;53653;52.188;8.602;2022-12-18T17:46:00;-0.38;66.86
66740;DHT22;53653;52.188;8.602;2022-12-18T17:48:25;-0.42;66.50
66740;DHT22;53653;52.188;8.602;2022-12-18T17:50:51;-0.38;66.63